Main page
METAR-TAF:

METAR-TAF

Airports :

Doncaster Sheffield Airport

Doncaster, England

latitude: 53-29N, longitude: 001-00W, elevation: 17 m

Current weather observation

The report was made 15 minutes ago, at 19:20 UTC
Wind 6 kt from the West
Temperature 21°C
Humidity 64%
Pressure 1015 hPa
Visibility 10 km or more
Few clouds at a height of 4000 ft

METAR: EGCN 211920Z 28006KT 9999 FEW040 21/14 Q1015

Time: 20:35 (19:35 UTC)

Forecast

The report was made 2 hours and 38 minutes ago, at 16:57 UTC
Forecast valid from 21 at 18 UTC to 22 at 18 UTC
Wind 8 kt from the West
Visibility 10 km or more
Few clouds at a height of 2500 ft

TAF: EGCN 211657Z 2118/2218 27008KT 9999 FEW025

Weather observations and forecasts of more than 4000 airports (METAR and TAF reports).

The available stations are represented by yellow and red dots on the map.

Hover mouse over dot to see the name of the station.

Then click to see weather observations and forecasts.

To change the map : click on the green buttons with a black cross to zoom in, on the green button with a dash to zoom out, or on the green arrows for adjacent maps.


METAR-TAF: